createdAt,value
2018-07-21T00:02:27.629Z,6.40
2018-07-21T00:04:55.453Z,6.37
2018-07-21T00:07:23.501Z,6.53
2018-07-21T00:09:51.362Z,6.30
2018-07-21T00:12:19.153Z,6.70
2018-07-21T00:14:46.924Z,6.23
2018-07-21T00:17:14.717Z,5.73
2018-07-21T00:19:42.886Z,5.70
2018-07-21T00:22:10.714Z,5.67
2018-07-21T00:24:38.501Z,6.20
2018-07-21T00:27:06.267Z,6.10
2018-07-21T00:29:34.034Z,5.90
2018-07-21T00:32:01.817Z,5.50
2018-07-21T00:34:29.601Z,5.60
2018-07-21T00:36:57.386Z,5.23
2018-07-21T00:39:25.149Z,5.40
2018-07-21T00:41:52.934Z,5.70
2018-07-21T00:44:20.717Z,5.13
2018-07-21T00:46:48.566Z,5.20
2018-07-21T00:49:16.389Z,5.57
2018-07-21T00:51:44.196Z,5.67
2018-07-21T00:54:11.975Z,6.10
2018-07-21T00:56:39.751Z,6.53
2018-07-21T00:59:08.456Z,6.50
2018-07-21T01:01:36.208Z,6.27
2018-07-21T01:04:04.067Z,6.70
2018-07-21T01:06:31.845Z,6.80
2018-07-21T01:08:59.620Z,7.07
2018-07-21T01:11:27.491Z,6.60
2018-07-21T01:13:55.263Z,6.73
2018-07-21T01:16:23.124Z,7.33
2018-07-21T01:18:50.911Z,6.60
2018-07-21T01:21:18.741Z,6.80
2018-07-21T01:23:46.534Z,7.17
2018-07-21T01:26:14.370Z,6.97
2018-07-21T01:28:42.152Z,6.53
2018-07-21T01:31:10.031Z,7.03
2018-07-21T01:33:37.786Z,6.50
2018-07-21T01:36:05.709Z,6.40
2018-07-21T01:38:33.518Z,6.97
2018-07-21T01:41:01.315Z,6.43
2018-07-21T01:43:29.071Z,6.60
2018-07-21T01:45:56.813Z,6.63
2018-07-21T01:48:24.657Z,6.47
2018-07-21T01:50:52.450Z,6.73
2018-07-21T01:53:20.222Z,6.33
2018-07-21T01:55:48.007Z,6.03
2018-07-21T01:58:15.800Z,6.73
2018-07-21T02:00:43.638Z,6.17
2018-07-21T02:03:11.412Z,6.40
2018-07-21T02:05:39.178Z,6.47
2018-07-21T02:08:06.994Z,6.57
2018-07-21T02:10:35.049Z,6.73
2018-07-21T02:13:02.861Z,6.67
2018-07-21T02:15:30.630Z,5.90
2018-07-21T02:17:58.586Z,5.23
2018-07-21T02:20:26.353Z,4.73
2018-07-21T02:22:54.179Z,4.97
2018-07-21T02:25:22.048Z,4.77
2018-07-21T02:27:49.839Z,5.00
2018-07-21T02:30:17.646Z,4.83
2018-07-21T02:32:45.457Z,4.57
2018-07-21T02:35:13.286Z,4.50
2018-07-21T02:37:41.139Z,4.40
2018-07-21T02:40:08.975Z,4.60
2018-07-21T02:42:36.753Z,4.57
2018-07-21T02:45:04.851Z,4.87
2018-07-21T02:47:32.666Z,4.60
2018-07-21T02:50:00.469Z,4.43
2018-07-21T02:52:28.311Z,4.80
2018-07-21T02:54:56.085Z,4.93
2018-07-21T02:57:23.861Z,4.90
2018-07-21T02:59:51.630Z,5.20
2018-07-21T03:02:19.473Z,4.67
2018-07-21T03:04:47.297Z,4.67
2018-07-21T03:07:15.085Z,4.67
2018-07-21T03:09:42.869Z,4.93
2018-07-21T03:12:10.654Z,4.87
2018-07-21T03:14:38.513Z,4.90
2018-07-21T03:17:06.343Z,4.57
2018-07-21T03:19:34.258Z,4.30
2018-07-21T03:22:02.116Z,4.53
2018-07-21T03:24:29.937Z,4.30
2018-07-21T03:26:57.719Z,4.70
2018-07-21T03:29:25.598Z,4.20
2018-07-21T03:31:53.934Z,4.33
2018-07-21T03:34:21.702Z,4.87
2018-07-21T03:36:49.529Z,4.60
2018-07-21T03:39:17.686Z,4.60
2018-07-21T03:41:45.495Z,4.23
2018-07-21T03:44:13.325Z,4.43
2018-07-21T03:46:41.186Z,4.47
2018-07-21T03:49:09.055Z,4.73
2018-07-21T03:51:36.841Z,4.47
2018-07-21T03:54:04.639Z,4.60
2018-07-21T03:56:32.474Z,4.53
2018-07-21T03:59:00.258Z,5.00
2018-07-21T04:01:28.098Z,4.43
2018-07-21T04:03:55.891Z,4.40
2018-07-21T04:06:23.696Z,4.77
2018-07-21T04:08:51.549Z,4.63
2018-07-21T04:11:19.414Z,4.40
2018-07-21T04:13:47.287Z,4.60
2018-07-21T04:16:15.160Z,4.20
2018-07-21T04:18:42.927Z,4.70
2018-07-21T04:21:10.686Z,4.70
2018-07-21T04:23:38.461Z,4.90
2018-07-21T04:26:06.542Z,4.70
2018-07-21T04:28:34.398Z,4.70
2018-07-21T04:31:02.171Z,5.50
2018-07-21T04:33:29.937Z,5.07
2018-07-21T04:35:57.702Z,4.43
2018-07-21T04:38:25.561Z,4.43
2018-07-21T04:40:53.369Z,4.40
2018-07-21T04:43:21.131Z,4.97
2018-07-21T04:45:48.893Z,4.40
2018-07-21T04:48:16.683Z,4.80
2018-07-21T04:50:44.481Z,4.40
2018-07-21T04:53:12.249Z,4.80
2018-07-21T04:55:40.013Z,4.50
2018-07-21T04:58:07.802Z,4.37
2018-07-21T05:00:35.606Z,4.50
2018-07-21T05:03:03.447Z,4.57
2018-07-21T05:05:31.245Z,4.83
2018-07-21T05:07:59.034Z,4.50
2018-07-21T05:10:26.819Z,4.57
2018-07-21T05:12:54.679Z,4.90
2018-07-21T05:15:22.509Z,4.50
2018-07-21T05:17:50.289Z,4.87
2018-07-21T05:20:18.118Z,4.87
2018-07-21T05:22:45.939Z,5.07
2018-07-21T05:25:13.739Z,4.70
2018-07-21T05:27:41.553Z,5.07
2018-07-21T05:30:09.402Z,5.27
2018-07-21T05:32:37.303Z,4.90
2018-07-21T05:35:05.313Z,4.67
2018-07-21T05:37:33.127Z,4.70
2018-07-21T05:40:00.926Z,5.10
2018-07-21T05:42:28.750Z,4.90
2018-07-21T05:44:56.520Z,4.70
2018-07-21T05:47:24.294Z,4.80
2018-07-21T05:49:52.101Z,4.90
2018-07-21T05:52:19.902Z,5.00
2018-07-21T05:54:47.755Z,4.30
2018-07-21T05:57:15.749Z,4.87
2018-07-21T05:59:43.529Z,5.37
2018-07-21T06:02:11.397Z,4.90
2018-07-21T06:04:39.246Z,4.90
2018-07-21T06:07:07.022Z,4.90
2018-07-21T06:09:34.786Z,5.17
2018-07-21T06:12:02.613Z,4.90
2018-07-21T06:14:30.381Z,5.20
2018-07-21T06:16:58.179Z,4.80
2018-07-21T06:19:25.984Z,5.07
2018-07-21T06:21:53.754Z,5.20
2018-07-21T06:24:21.569Z,5.10
2018-07-21T06:26:49.320Z,5.30
2018-07-21T06:29:17.114Z,4.83
2018-07-21T06:31:44.954Z,5.00
2018-07-21T06:34:12.756Z,5.50
2018-07-21T06:36:40.598Z,5.17
2018-07-21T06:39:10.188Z,4.57
2018-07-21T06:41:38.006Z,4.70
2018-07-21T06:44:05.923Z,4.63
2018-07-21T06:46:33.762Z,5.63
2018-07-21T06:49:01.611Z,5.43
2018-07-21T06:51:29.435Z,5.23
2018-07-21T06:53:57.278Z,5.10
2018-07-21T06:56:25.083Z,5.03
2018-07-21T06:58:52.909Z,4.70
2018-07-21T07:01:20.789Z,5.20
2018-07-21T07:03:48.609Z,5.40
2018-07-21T07:06:16.750Z,4.90
2018-07-21T07:08:44.535Z,4.83
2018-07-21T07:11:12.459Z,4.73
2018-07-21T07:13:40.298Z,5.53
2018-07-21T07:16:08.110Z,4.87
2018-07-21T07:18:35.897Z,5.20
2018-07-21T07:21:03.814Z,5.60
2018-07-21T07:23:31.631Z,5.47
2018-07-21T07:25:59.484Z,5.23
2018-07-21T07:28:27.282Z,4.87
2018-07-21T07:30:55.123Z,5.57
2018-07-21T07:33:22.954Z,5.43
2018-07-21T07:35:50.763Z,5.53
2018-07-21T07:38:18.623Z,4.87
2018-07-21T07:40:46.416Z,5.33
2018-07-21T07:43:14.206Z,5.40
2018-07-21T07:45:42.011Z,5.00
2018-07-21T07:48:09.793Z,5.60
2018-07-21T07:50:37.625Z,5.23
2018-07-21T07:53:05.445Z,5.20
2018-07-21T07:55:34.036Z,5.27
2018-07-21T07:58:03.354Z,4.67
2018-07-21T08:00:31.270Z,5.30
2018-07-21T08:02:59.898Z,5.33
2018-07-21T08:05:27.697Z,5.07
2018-07-21T08:07:55.494Z,5.17
2018-07-21T08:10:23.303Z,4.93
2018-07-21T08:12:51.651Z,5.07
2018-07-21T08:15:20.077Z,5.10
2018-07-21T08:17:48.335Z,5.07
2018-07-21T08:20:16.305Z,5.13
2018-07-21T08:22:44.074Z,4.80
2018-07-21T08:25:11.842Z,4.97
2018-07-21T08:27:39.691Z,5.07
2018-07-21T08:30:08.790Z,4.97
2018-07-21T08:32:36.610Z,5.17
2018-07-21T08:35:04.500Z,5.13
2018-07-21T08:37:32.541Z,5.43
2018-07-21T08:40:00.333Z,5.10
2018-07-21T08:42:28.403Z,5.27
2018-07-21T08:44:56.270Z,5.37
2018-07-21T08:47:24.165Z,5.57
2018-07-21T08:49:51.959Z,5.57
2018-07-21T08:52:19.814Z,4.93
2018-07-21T08:54:47.593Z,5.37
2018-07-21T08:57:15.688Z,5.87
2018-07-21T08:59:43.552Z,5.60
2018-07-21T09:02:11.486Z,6.10
2018-07-21T09:04:39.442Z,5.57
2018-07-21T09:07:07.245Z,4.40
2018-07-21T09:09:35.070Z,5.00
2018-07-21T09:12:02.886Z,5.27
2018-07-21T09:14:30.681Z,4.67
2018-07-21T09:16:58.570Z,4.30
2018-07-21T09:19:26.735Z,4.60
2018-07-21T09:21:54.735Z,4.23
2018-07-21T09:24:22.541Z,4.60
2018-07-21T09:26:50.313Z,4.57
2018-07-21T09:29:18.249Z,4.93
2018-07-21T09:31:46.180Z,4.80
2018-07-21T09:34:14.041Z,4.90
2018-07-21T09:36:41.844Z,4.67
2018-07-21T09:39:10.418Z,4.70
2018-07-21T09:41:38.296Z,5.07
2018-07-21T09:44:06.143Z,5.10
2018-07-21T09:46:33.956Z,5.07
2018-07-21T09:49:01.771Z,5.03
2018-07-21T09:51:29.587Z,4.60
2018-07-21T09:53:57.465Z,5.10
2018-07-21T09:56:25.287Z,4.70
2018-07-21T09:58:53.133Z,5.00
2018-07-21T10:01:20.971Z,5.23
2018-07-21T10:03:48.760Z,5.33
2018-07-21T10:06:16.600Z,5.60
2018-07-21T10:08:44.451Z,4.77
2018-07-21T10:11:12.319Z,4.63
2018-07-21T10:13:40.220Z,4.73
2018-07-21T10:16:08.036Z,5.40
2018-07-21T10:18:35.825Z,4.83
2018-07-21T10:21:03.678Z,5.27
2018-07-21T10:23:31.863Z,4.53
2018-07-21T10:26:05.250Z,3.97
2018-07-21T10:28:38.549Z,4.23
2018-07-21T10:31:06.386Z,4.30
2018-07-21T10:33:34.187Z,4.53
2018-07-21T10:36:02.069Z,4.63
2018-07-21T10:38:29.841Z,4.90
2018-07-21T10:40:57.647Z,4.70
2018-07-21T10:43:25.499Z,4.90
2018-07-21T10:45:53.326Z,4.40
2018-07-21T10:48:21.120Z,4.63
2018-07-21T10:50:49.004Z,4.30
2018-07-21T10:53:16.807Z,4.63
2018-07-21T10:55:44.641Z,4.57
2018-07-21T10:58:12.441Z,4.33
2018-07-21T11:00:40.314Z,4.77
2018-07-21T11:05:44.066Z,4.13
2018-07-21T11:08:12.022Z,4.33
2018-07-21T11:10:39.788Z,4.20
2018-07-21T11:13:07.609Z,4.60
2018-07-21T11:15:36.627Z,4.27
2018-07-21T11:18:04.439Z,4.20
2018-07-21T11:20:32.302Z,4.17
2018-07-21T11:23:00.118Z,4.13
2018-07-21T11:25:27.915Z,4.47
2018-07-21T11:27:55.739Z,4.80
2018-07-21T11:30:23.529Z,4.30
2018-07-21T11:32:51.349Z,4.47
2018-07-21T11:35:19.199Z,4.90
2018-07-21T11:37:46.989Z,4.00
2018-07-21T11:40:14.806Z,4.50
2018-07-21T11:42:42.602Z,4.13
2018-07-21T11:45:10.437Z,4.83
2018-07-21T11:47:38.235Z,4.23
2018-07-21T11:50:06.083Z,4.07
2018-07-21T11:52:33.886Z,4.30
2018-07-21T11:55:01.702Z,4.37
2018-07-21T11:57:29.477Z,4.00
2018-07-21T11:59:57.259Z,4.17
2018-07-21T12:02:25.110Z,4.00
2018-07-21T12:04:52.910Z,4.20
2018-07-21T12:07:20.769Z,4.00
2018-07-21T12:09:48.633Z,4.00
2018-07-21T12:12:16.402Z,4.37
2018-07-21T12:14:44.238Z,3.60
2018-07-21T12:17:12.047Z,3.73
2018-07-21T12:19:40.116Z,4.03
2018-07-21T12:22:07.954Z,3.87
2018-07-21T12:24:35.828Z,3.90
2018-07-21T12:27:03.918Z,3.80
2018-07-21T12:29:31.735Z,4.10
2018-07-21T12:31:59.537Z,4.20
2018-07-21T12:34:27.372Z,3.67
2018-07-21T12:36:55.188Z,3.70
2018-07-21T12:39:22.981Z,3.63
2018-07-21T12:41:50.815Z,3.80
2018-07-21T12:44:18.621Z,3.80
2018-07-21T12:46:46.458Z,4.90
2018-07-21T12:49:14.245Z,4.10
2018-07-21T12:51:42.036Z,3.87
2018-07-21T12:54:09.927Z,4.20
2018-07-21T12:56:37.721Z,4.30
2018-07-21T12:59:05.586Z,4.23
2018-07-21T13:01:33.377Z,4.03
2018-07-21T13:04:01.191Z,3.70
2018-07-21T13:06:29.066Z,3.90
2018-07-21T13:08:56.914Z,4.10
2018-07-21T13:11:24.742Z,3.70
2018-07-21T13:13:52.531Z,4.10
2018-07-21T13:16:20.346Z,4.00
2018-07-21T13:18:48.130Z,4.07
2018-07-21T13:21:15.987Z,3.90
2018-07-21T13:23:43.851Z,4.30
2018-07-21T13:26:11.690Z,4.00
2018-07-21T13:28:39.522Z,3.63
2018-07-21T13:31:07.353Z,4.00
2018-07-21T13:33:35.155Z,4.07
2018-07-21T13:36:03.391Z,3.90
2018-07-21T13:38:31.202Z,3.87
2018-07-21T13:40:59.034Z,4.23
2018-07-21T13:43:26.923Z,4.70
2018-07-21T13:45:54.802Z,4.60
2018-07-21T13:48:22.644Z,4.50
2018-07-21T13:50:50.524Z,4.07
2018-07-21T13:53:18.380Z,3.93
2018-07-21T13:55:46.209Z,4.80
2018-07-21T13:58:14.005Z,4.30
2018-07-21T14:00:41.828Z,4.70
2018-07-21T14:03:09.613Z,4.20
2018-07-21T14:05:37.454Z,4.80
2018-07-21T14:08:05.380Z,4.00
2018-07-21T14:10:33.339Z,4.80
2018-07-21T14:13:01.363Z,4.00
2018-07-21T14:15:29.206Z,4.40
2018-07-21T14:17:57.019Z,4.17
2018-07-21T14:20:25.141Z,4.10
2018-07-21T14:22:52.960Z,4.13
2018-07-21T14:25:20.767Z,4.50
2018-07-21T14:27:48.658Z,4.17
2018-07-21T14:30:16.505Z,4.30
2018-07-21T14:32:44.329Z,4.30
2018-07-21T14:35:12.273Z,4.73
2018-07-21T14:37:40.062Z,4.57
2018-07-21T14:40:07.902Z,4.40
2018-07-21T14:42:35.759Z,4.27
2018-07-21T14:45:03.663Z,4.47
2018-07-21T14:47:31.532Z,4.63
2018-07-21T14:49:59.335Z,4.40
2018-07-21T14:52:27.167Z,4.20
2018-07-21T14:54:55.030Z,4.27
2018-07-21T14:57:22.804Z,4.10
2018-07-21T14:59:50.611Z,4.40
2018-07-21T15:02:18.431Z,4.50
2018-07-21T15:04:46.284Z,4.50
2018-07-21T15:07:14.121Z,4.90
2018-07-21T15:09:41.990Z,4.83
2018-07-21T15:12:09.814Z,4.70
2018-07-21T15:14:37.643Z,5.20
2018-07-21T15:17:05.754Z,5.40
2018-07-21T15:19:33.546Z,5.00
2018-07-21T15:22:01.365Z,6.00
2018-07-21T15:24:29.167Z,5.43
2018-07-21T15:26:56.953Z,5.20
2018-07-21T15:29:24.740Z,5.47
2018-07-21T15:31:52.617Z,5.43
2018-07-21T15:34:20.425Z,6.03
2018-07-21T15:36:48.197Z,6.00
2018-07-21T15:39:15.973Z,5.57
2018-07-21T15:41:43.769Z,5.83
2018-07-21T15:44:11.584Z,5.80
2018-07-21T15:46:39.408Z,6.63
2018-07-21T15:49:07.268Z,6.17
2018-07-21T15:51:35.052Z,5.93
2018-07-21T15:54:02.909Z,5.53
2018-07-21T15:56:30.688Z,5.40
2018-07-21T15:58:58.482Z,5.30
2018-07-21T16:01:26.460Z,4.80
2018-07-21T16:03:54.498Z,4.90
2018-07-21T16:06:22.290Z,4.80
2018-07-21T16:08:50.099Z,4.87
2018-07-21T16:11:17.889Z,4.63
2018-07-21T16:13:45.797Z,4.70
2018-07-21T16:16:13.989Z,4.30
2018-07-21T16:18:41.810Z,4.50
2018-07-21T16:21:09.631Z,4.13
2018-07-21T16:23:37.507Z,5.33
2018-07-21T16:26:05.601Z,4.13
2018-07-21T16:28:33.387Z,4.80
2018-07-21T16:31:01.174Z,4.63
2018-07-21T16:33:29.059Z,4.03
2018-07-21T16:35:56.863Z,3.97
2018-07-21T16:38:24.670Z,4.17
2018-07-21T16:40:52.459Z,3.70
2018-07-21T16:43:20.231Z,4.27
2018-07-21T16:45:48.247Z,4.20
2018-07-21T16:48:16.058Z,3.93
2018-07-21T16:50:43.853Z,4.00
2018-07-21T16:53:11.644Z,4.17
2018-07-21T16:55:39.410Z,4.30
2018-07-21T16:58:07.205Z,3.93
2018-07-21T17:00:34.991Z,4.10
2018-07-21T17:03:02.809Z,4.00
2018-07-21T17:05:30.914Z,4.90
2018-07-21T17:07:58.734Z,4.40
2018-07-21T17:10:26.521Z,4.43
2018-07-21T17:12:54.343Z,4.80
2018-07-21T17:15:22.129Z,4.53
2018-07-21T17:17:50.216Z,4.70
2018-07-21T17:20:18.357Z,4.80
2018-07-21T17:22:46.165Z,4.60
2018-07-21T17:25:14.098Z,4.60
2018-07-21T17:27:41.928Z,5.27
2018-07-21T17:30:09.737Z,4.77
2018-07-21T17:32:37.620Z,4.70
2018-07-21T17:35:05.452Z,4.90
2018-07-21T17:37:33.342Z,4.47
2018-07-21T17:40:01.160Z,4.80
2018-07-21T17:42:28.952Z,4.40
2018-07-21T17:44:57.258Z,5.10
2018-07-21T17:47:25.154Z,4.60
2018-07-21T17:49:52.974Z,4.27
2018-07-21T17:52:20.848Z,4.63
2018-07-21T17:54:48.687Z,4.43
2018-07-21T17:57:16.484Z,4.77
2018-07-21T17:59:44.293Z,4.63
2018-07-21T18:02:12.194Z,4.97
2018-07-21T18:04:40.080Z,5.00
2018-07-21T18:07:07.912Z,5.93
2018-07-21T18:09:35.730Z,5.80
2018-07-21T18:12:03.614Z,6.17
2018-07-21T18:14:31.509Z,6.30
2018-07-21T18:16:59.611Z,5.57
2018-07-21T18:19:27.409Z,5.93
2018-07-21T18:21:55.244Z,5.73
2018-07-21T18:24:23.074Z,6.67
2018-07-21T18:26:50.969Z,7.03
2018-07-21T18:29:18.776Z,6.20
2018-07-21T18:31:46.665Z,6.20
2018-07-21T18:34:14.410Z,6.60
2018-07-21T18:36:42.240Z,6.33
2018-07-21T18:39:11.173Z,5.60
2018-07-21T18:41:39.207Z,6.30
2018-07-21T18:44:07.390Z,6.83
2018-07-21T18:46:35.268Z,7.07
2018-07-21T18:49:03.163Z,7.70
2018-07-21T18:51:31.048Z,7.40
2018-07-21T18:53:58.865Z,7.60
2018-07-21T18:56:26.716Z,14.23
2018-07-21T18:58:54.563Z,10.17
2018-07-21T19:01:22.370Z,7.83
2018-07-21T19:03:50.257Z,9.40
2018-07-21T19:06:18.162Z,7.70
2018-07-21T19:08:51.414Z,6.40
2018-07-21T19:11:19.280Z,5.73
2018-07-21T19:13:47.104Z,6.97
2018-07-21T19:16:20.473Z,7.37
2018-07-21T19:18:48.505Z,7.40
2018-07-21T19:21:16.594Z,7.07
2018-07-21T19:23:44.530Z,7.47
2018-07-21T19:26:17.856Z,7.50
2018-07-21T19:28:45.785Z,7.70
2018-07-21T19:31:13.660Z,7.07
2018-07-21T19:33:41.485Z,7.43
2018-07-21T19:36:09.355Z,7.57
2018-07-21T19:38:37.209Z,7.07
2018-07-21T19:41:10.643Z,6.63
2018-07-21T19:43:38.822Z,6.57
2018-07-21T19:46:06.654Z,6.30
2018-07-21T19:48:34.510Z,6.67
2018-07-21T19:51:02.471Z,6.47
2018-07-21T19:53:30.344Z,6.13
2018-07-21T19:55:58.181Z,6.10
2018-07-21T19:58:26.004Z,6.07
2018-07-21T20:00:53.820Z,6.03
2018-07-21T20:03:21.894Z,6.47
2018-07-21T20:05:49.761Z,6.17
2018-07-21T20:08:17.641Z,5.47
2018-07-21T20:10:45.421Z,5.70
2018-07-21T20:13:13.221Z,6.00
2018-07-21T20:15:41.050Z,6.17
2018-07-21T20:18:08.971Z,5.50
2018-07-21T20:20:36.768Z,5.47
2018-07-21T20:23:04.689Z,7.13
2018-07-21T20:25:32.588Z,6.53
2018-07-21T20:28:00.392Z,7.30
2018-07-21T20:30:28.223Z,6.90
2018-07-21T20:32:56.030Z,7.20
2018-07-21T20:35:23.849Z,7.10
2018-07-21T20:37:51.646Z,6.87
2018-07-21T20:40:19.459Z,7.10
2018-07-21T20:42:47.271Z,6.80
2018-07-21T20:45:15.114Z,7.53
2018-07-21T20:47:42.902Z,6.87
2018-07-21T20:50:10.740Z,7.03
2018-07-21T20:52:38.525Z,6.60
2018-07-21T20:55:06.414Z,6.73
2018-07-21T20:57:34.194Z,6.70
2018-07-21T21:00:02.066Z,6.67
2018-07-21T21:02:29.868Z,6.40
2018-07-21T21:04:57.767Z,6.10
2018-07-21T21:07:25.575Z,6.33
2018-07-21T21:09:53.350Z,6.07
2018-07-21T21:12:21.276Z,6.00
2018-07-21T21:14:49.305Z,5.27
2018-07-21T21:17:17.831Z,6.10
2018-07-21T21:19:45.614Z,5.57
2018-07-21T21:22:13.532Z,6.30
2018-07-21T21:24:41.327Z,5.73
2018-07-21T21:27:09.506Z,5.80
2018-07-21T21:29:37.368Z,5.87
2018-07-21T21:32:05.131Z,5.90
2018-07-21T21:34:32.920Z,5.47
2018-07-21T21:37:00.718Z,5.90
2018-07-21T21:39:28.498Z,6.33
2018-07-21T21:41:56.333Z,5.97
2018-07-21T21:44:24.061Z,6.43
2018-07-21T21:46:51.857Z,5.83
2018-07-21T21:49:19.625Z,6.43
2018-07-21T21:51:47.378Z,5.83
2018-07-21T21:54:15.165Z,6.47
2018-07-21T21:56:42.971Z,6.10
2018-07-21T21:59:10.776Z,5.93
2018-07-21T22:01:38.576Z,5.80
2018-07-21T22:04:06.400Z,5.57
2018-07-21T22:06:34.165Z,5.33
2018-07-21T22:09:01.989Z,5.00
2018-07-21T22:11:29.775Z,5.30
2018-07-21T22:13:57.582Z,6.03
2018-07-21T22:16:25.446Z,5.33
2018-07-21T22:18:53.277Z,5.57
2018-07-21T22:21:21.150Z,5.37
2018-07-21T22:23:48.902Z,6.07
2018-07-21T22:26:16.665Z,5.90
2018-07-21T22:28:44.462Z,5.27
2018-07-21T22:31:12.233Z,5.33
2018-07-21T22:33:40.002Z,5.17
2018-07-21T22:36:07.786Z,5.30
2018-07-21T22:38:35.541Z,5.30
2018-07-21T22:41:03.377Z,5.27
2018-07-21T22:43:36.588Z,4.93
2018-07-21T22:46:04.653Z,5.10
2018-07-21T22:48:32.408Z,5.97
2018-07-21T22:51:00.190Z,5.10
2018-07-21T22:53:27.974Z,5.13
2018-07-21T22:55:56.056Z,4.87
2018-07-21T22:58:23.930Z,5.50
2018-07-21T23:00:51.893Z,5.43
2018-07-21T23:03:19.672Z,5.13
2018-07-21T23:05:47.433Z,5.20
2018-07-21T23:08:15.254Z,4.73
2018-07-21T23:10:43.026Z,4.70
2018-07-21T23:13:10.885Z,5.03
2018-07-21T23:15:38.666Z,5.37
2018-07-21T23:18:06.421Z,5.10
2018-07-21T23:20:34.209Z,4.70
2018-07-21T23:23:01.978Z,4.57
2018-07-21T23:25:29.763Z,5.00
2018-07-21T23:27:57.588Z,5.00
2018-07-21T23:30:25.350Z,5.13
2018-07-21T23:32:53.114Z,5.03
2018-07-21T23:35:20.909Z,6.17
2018-07-21T23:37:48.715Z,6.07
2018-07-21T23:40:16.485Z,5.67
2018-07-21T23:42:44.268Z,5.53
2018-07-21T23:45:12.053Z,5.97
2018-07-21T23:47:39.852Z,6.03
2018-07-21T23:50:07.896Z,6.00
2018-07-21T23:52:35.693Z,6.43
2018-07-21T23:55:04.446Z,6.47
2018-07-21T23:57:32.233Z,7.13
